Carmacks, Canada
Current Conditions -  °F | °C
As of 9:00 AM on Sunday 23 Nov 2014 (Local Time) from CYDB Reporting Station
Moderate Fog Moderate Fog  
Wind Chill: 12°   Ceiling: 300
Heat Index: 12°   Visibility: 0.5mi
Dew Point: 10°   Wind: 0mph
Humidity: 92%   Direction: NA
Pressure: 29.45"   Gusts: NA
Location:  62.1°N, 136.32°W
Report Text: CYDB 231700Z 00000KT 1/2SM FZFG OVC003 M11/M12 A2945 RMK FG4ST4 SLP035
Loading
Personal Weather Stations






























Interactive Weather Map New forecast layout! Learn more

10-Day Weather Forecast

Advertisements
Track Severe Weather on mobile